sensor_id;sensor_type;location;lat;lon;timestamp;temperature;humidity
33803;DHT22;20110;53.120;5.786;2023-07-16T00:01:54;15.30;40.00
33803;DHT22;20110;53.120;5.786;2023-07-16T00:04:20;15.30;27.60
33803;DHT22;20110;53.120;5.786;2023-07-16T00:06:46;15.40;1.00
33803;DHT22;20110;53.120;5.786;2023-07-16T00:09:12;15.40;1.00
33803;DHT22;20110;53.120;5.786;2023-07-16T00:11:37;15.40;1.00
33803;DHT22;20110;53.120;5.786;2023-07-16T00:14:03;15.50;1.00
33803;DHT22;20110;53.120;5.786;2023-07-16T00:16:30;15.50;1.00
33803;DHT22;20110;53.120;5.786;2023-07-16T00:18:56;15.50;1.00
33803;DHT22;20110;53.120;5.786;2023-07-16T00:21:23;15.40;1.00
33803;DHT22;20110;53.120;5.786;2023-07-16T00:23:49;15.50;1.00
33803;DHT22;20110;53.120;5.786;2023-07-16T00:26:15;15.50;1.00
33803;DHT22;20110;53.120;5.786;2023-07-16T00:28:41;15.50;1.00
33803;DHT22;20110;53.120;5.786;2023-07-16T00:31:07;15.40;7.50
33803;DHT22;20110;53.120;5.786;2023-07-16T00:33:44;15.30;99.90
33803;DHT22;20110;53.120;5.786;2023-07-16T00:36:15;15.20;99.90
33803;DHT22;20110;53.120;5.786;2023-07-16T00:38:41;15.20;99.90
33803;DHT22;20110;53.120;5.786;2023-07-16T00:41:08;15.30;99.90
33803;DHT22;20110;53.120;5.786;2023-07-16T00:43:34;15.30;99.90
33803;DHT22;20110;53.120;5.786;2023-07-16T00:46:00;15.40;54.00
33803;DHT22;20110;53.120;5.786;2023-07-16T00:48:26;15.70;1.00
33803;DHT22;20110;53.120;5.786;2023-07-16T00:50:53;15.70;1.00
33803;DHT22;20110;53.120;5.786;2023-07-16T00:53:20;15.70;1.00
33803;DHT22;20110;53.120;5.786;2023-07-16T00:55:47;15.80;1.00
33803;DHT22;20110;53.120;5.786;2023-07-16T00:58:12;15.70;99.90
33803;DHT22;20110;53.120;5.786;2023-07-16T01:00:39;15.70;1.00
33803;DHT22;20110;53.120;5.786;2023-07-16T01:03:08;15.60;1.00
33803;DHT22;20110;53.120;5.786;2023-07-16T01:06:00;15.60;1.00
33803;DHT22;20110;53.120;5.786;2023-07-16T01:08:45;15.70;1.00
33803;DHT22;20110;53.120;5.786;2023-07-16T01:11:12;15.70;1.00
33803;DHT22;20110;53.120;5.786;2023-07-16T01:13:39;15.50;1.00
33803;DHT22;20110;53.120;5.786;2023-07-16T01:16:06;15.60;13.20
33803;DHT22;20110;53.120;5.786;2023-07-16T01:18:43;15.50;59.50
33803;DHT22;20110;53.120;5.786;2023-07-16T01:21:09;15.40;99.90
33803;DHT22;20110;53.120;5.786;2023-07-16T01:29:33;15.50;99.90
33803;DHT22;20110;53.120;5.786;2023-07-16T01:32:04;15.50;99.90
33803;DHT22;20110;53.120;5.786;2023-07-16T01:34:34;15.60;99.90
33803;DHT22;20110;53.120;5.786;2023-07-16T01:37:02;15.70;99.90
33803;DHT22;20110;53.120;5.786;2023-07-16T01:39:30;15.60;99.90
33803;DHT22;20110;53.120;5.786;2023-07-16T01:41:56;15.60;99.90
33803;DHT22;20110;53.120;5.786;2023-07-16T01:44:23;15.60;99.90
33803;DHT22;20110;53.120;5.786;2023-07-16T01:47:02;15.60;99.90
33803;DHT22;20110;53.120;5.786;2023-07-16T01:49:29;15.60;1.00
33803;DHT22;20110;53.120;5.786;2023-07-16T01:51:55;15.60;1.00
33803;DHT22;20110;53.120;5.786;2023-07-16T01:54:21;15.50;99.90
33803;DHT22;20110;53.120;5.786;2023-07-16T01:56:47;15.50;99.90
33803;DHT22;20110;53.120;5.786;2023-07-16T01:59:13;15.50;87.10
33803;DHT22;20110;53.120;5.786;2023-07-16T02:01:38;15.70;99.90
33803;DHT22;20110;53.120;5.786;2023-07-16T02:04:04;15.70;99.90
33803;DHT22;20110;53.120;5.786;2023-07-16T02:06:30;15.60;1.00
33803;DHT22;20110;53.120;5.786;2023-07-16T02:08:56;15.40;71.60
33803;DHT22;20110;53.120;5.786;2023-07-16T02:11:21;15.30;1.00
33803;DHT22;20110;53.120;5.786;2023-07-16T02:13:48;15.20;27.30
33803;DHT22;20110;53.120;5.786;2023-07-16T02:16:14;15.00;39.20
33803;DHT22;20110;53.120;5.786;2023-07-16T02:18:40;15.00;99.90
33803;DHT22;20110;53.120;5.786;2023-07-16T02:21:06;15.00;99.90
33803;DHT22;20110;53.120;5.786;2023-07-16T02:23:31;15.10;1.00
33803;DHT22;20110;53.120;5.786;2023-07-16T02:25:57;15.30;99.90
33803;DHT22;20110;53.120;5.786;2023-07-16T02:28:23;15.40;99.90
33803;DHT22;20110;53.120;5.786;2023-07-16T02:30:50;15.50;1.00
33803;DHT22;20110;53.120;5.786;2023-07-16T02:33:16;15.50;99.90
33803;DHT22;20110;53.120;5.786;2023-07-16T02:35:49;15.50;99.90
33803;DHT22;20110;53.120;5.786;2023-07-16T02:38:17;15.40;99.90
33803;DHT22;20110;53.120;5.786;2023-07-16T02:40:47;15.40;99.90
33803;DHT22;20110;53.120;5.786;2023-07-16T02:43:14;15.40;99.90
33803;DHT22;20110;53.120;5.786;2023-07-16T02:45:40;15.40;99.90
33803;DHT22;20110;53.120;5.786;2023-07-16T02:48:06;15.40;99.90
33803;DHT22;20110;53.120;5.786;2023-07-16T02:50:36;15.50;99.90
33803;DHT22;20110;53.120;5.786;2023-07-16T02:53:07;15.40;99.90
33803;DHT22;20110;53.120;5.786;2023-07-16T02:55:34;15.40;99.90
33803;DHT22;20110;53.120;5.786;2023-07-16T02:58:01;15.40;99.90
33803;DHT22;20110;53.120;5.786;2023-07-16T03:00:31;15.40;99.90
33803;DHT22;20110;53.120;5.786;2023-07-16T03:02:57;15.40;99.90
33803;DHT22;20110;53.120;5.786;2023-07-16T03:05:25;15.30;99.90
33803;DHT22;20110;53.120;5.786;2023-07-16T03:07:51;15.30;99.90
33803;DHT22;20110;53.120;5.786;2023-07-16T03:10:17;15.30;99.90
33803;DHT22;20110;53.120;5.786;2023-07-16T03:12:43;15.30;1.00
33803;DHT22;20110;53.120;5.786;2023-07-16T03:15:09;15.30;1.00
33803;DHT22;20110;53.120;5.786;2023-07-16T03:17:35;15.40;1.00
33803;DHT22;20110;53.120;5.786;2023-07-16T03:20:02;15.50;99.90
33803;DHT22;20110;53.120;5.786;2023-07-16T03:22:31;15.50;99.90
33803;DHT22;20110;53.120;5.786;2023-07-16T03:24:57;15.60;99.90
33803;DHT22;20110;53.120;5.786;2023-07-16T03:27:23;15.50;99.90
33803;DHT22;20110;53.120;5.786;2023-07-16T03:29:49;15.60;99.90
33803;DHT22;20110;53.120;5.786;2023-07-16T03:32:15;15.60;99.90
33803;DHT22;20110;53.120;5.786;2023-07-16T03:34:40;15.60;99.90
33803;DHT22;20110;53.120;5.786;2023-07-16T03:37:06;15.50;99.90
33803;DHT22;20110;53.120;5.786;2023-07-16T03:39:32;15.50;1.00
33803;DHT22;20110;53.120;5.786;2023-07-16T03:41:58;15.50;99.90
33803;DHT22;20110;53.120;5.786;2023-07-16T03:44:24;15.50;1.00
33803;DHT22;20110;53.120;5.786;2023-07-16T03:46:49;15.50;1.00
33803;DHT22;20110;53.120;5.786;2023-07-16T03:49:15;15.60;24.00
33803;DHT22;20110;53.120;5.786;2023-07-16T03:51:41;15.50;1.00
33803;DHT22;20110;53.120;5.786;2023-07-16T03:54:07;15.50;19.70
33803;DHT22;20110;53.120;5.786;2023-07-16T03:56:32;15.50;1.00
33803;DHT22;20110;53.120;5.786;2023-07-16T03:58:58;15.50;1.00
33803;DHT22;20110;53.120;5.786;2023-07-16T04:01:24;15.50;1.00
33803;DHT22;20110;53.120;5.786;2023-07-16T04:03:50;15.50;1.00
33803;DHT22;20110;53.120;5.786;2023-07-16T04:06:15;15.50;1.00
33803;DHT22;20110;53.120;5.786;2023-07-16T04:08:41;15.60;99.90
33803;DHT22;20110;53.120;5.786;2023-07-16T04:11:07;15.60;99.90
33803;DHT22;20110;53.120;5.786;2023-07-16T04:13:34;15.60;99.90
33803;DHT22;20110;53.120;5.786;2023-07-16T04:16:00;15.60;99.90
33803;DHT22;20110;53.120;5.786;2023-07-16T04:18:25;15.60;99.90
33803;DHT22;20110;53.120;5.786;2023-07-16T04:20:52;15.60;99.90
33803;DHT22;20110;53.120;5.786;2023-07-16T04:23:18;15.60;99.90
33803;DHT22;20110;53.120;5.786;2023-07-16T04:25:44;15.70;99.90
33803;DHT22;20110;53.120;5.786;2023-07-16T04:28:10;15.80;99.90
33803;DHT22;20110;53.120;5.786;2023-07-16T04:30:37;15.80;99.90
33803;DHT22;20110;53.120;5.786;2023-07-16T04:33:04;15.80;99.90
33803;DHT22;20110;53.120;5.786;2023-07-16T04:35:30;15.70;99.90
33803;DHT22;20110;53.120;5.786;2023-07-16T04:37:57;15.70;99.90
33803;DHT22;20110;53.120;5.786;2023-07-16T04:40:23;15.60;99.90
33803;DHT22;20110;53.120;5.786;2023-07-16T04:42:49;15.80;99.90
33803;DHT22;20110;53.120;5.786;2023-07-16T04:45:15;15.80;99.90
33803;DHT22;20110;53.120;5.786;2023-07-16T04:47:40;15.80;97.30
33803;DHT22;20110;53.120;5.786;2023-07-16T04:50:06;15.90;99.90
33803;DHT22;20110;53.120;5.786;2023-07-16T04:52:32;15.80;99.90
33803;DHT22;20110;53.120;5.786;2023-07-16T04:54:58;15.70;99.90
33803;DHT22;20110;53.120;5.786;2023-07-16T04:57:24;15.70;99.90
33803;DHT22;20110;53.120;5.786;2023-07-16T04:59:50;15.70;99.90
33803;DHT22;20110;53.120;5.786;2023-07-16T05:02:15;15.70;1.00
33803;DHT22;20110;53.120;5.786;2023-07-16T05:04:42;15.70;1.00
33803;DHT22;20110;53.120;5.786;2023-07-16T05:07:10;15.70;1.00
33803;DHT22;20110;53.120;5.786;2023-07-16T05:09:36;15.70;99.90
33803;DHT22;20110;53.120;5.786;2023-07-16T05:12:02;15.50;99.90
33803;DHT22;20110;53.120;5.786;2023-07-16T05:14:28;15.30;99.90
33803;DHT22;20110;53.120;5.786;2023-07-16T05:16:55;14.80;99.90
33803;DHT22;20110;53.120;5.786;2023-07-16T05:19:24;14.60;99.90
33803;DHT22;20110;53.120;5.786;2023-07-16T05:21:50;14.40;99.90
33803;DHT22;20110;53.120;5.786;2023-07-16T05:24:15;14.50;99.90
33803;DHT22;20110;53.120;5.786;2023-07-16T05:26:41;14.70;99.90
33803;DHT22;20110;53.120;5.786;2023-07-16T05:29:08;14.80;99.90
33803;DHT22;20110;53.120;5.786;2023-07-16T05:31:33;14.80;99.90
33803;DHT22;20110;53.120;5.786;2023-07-16T05:34:00;14.90;99.90
33803;DHT22;20110;53.120;5.786;2023-07-16T05:36:25;14.90;99.90
33803;DHT22;20110;53.120;5.786;2023-07-16T05:38:51;15.00;99.90
33803;DHT22;20110;53.120;5.786;2023-07-16T05:41:17;15.20;99.90
33803;DHT22;20110;53.120;5.786;2023-07-16T05:43:43;15.40;99.90
33803;DHT22;20110;53.120;5.786;2023-07-16T05:46:08;15.40;99.90
33803;DHT22;20110;53.120;5.786;2023-07-16T05:48:34;15.20;99.90
33803;DHT22;20110;53.120;5.786;2023-07-16T05:51:00;15.10;99.90
33803;DHT22;20110;53.120;5.786;2023-07-16T05:53:26;15.10;99.90
33803;DHT22;20110;53.120;5.786;2023-07-16T05:55:51;15.10;99.90
33803;DHT22;20110;53.120;5.786;2023-07-16T05:58:17;15.20;99.90
33803;DHT22;20110;53.120;5.786;2023-07-16T06:00:43;15.00;99.90
33803;DHT22;20110;53.120;5.786;2023-07-16T06:03:09;14.90;99.90
33803;DHT22;20110;53.120;5.786;2023-07-16T06:05:35;14.80;99.90
33803;DHT22;20110;53.120;5.786;2023-07-16T06:08:02;14.80;99.90
33803;DHT22;20110;53.120;5.786;2023-07-16T06:10:28;15.00;99.90
33803;DHT22;20110;53.120;5.786;2023-07-16T06:12:54;15.20;99.90
33803;DHT22;20110;53.120;5.786;2023-07-16T06:15:20;15.40;99.90
33803;DHT22;20110;53.120;5.786;2023-07-16T06:17:46;15.50;99.90
33803;DHT22;20110;53.120;5.786;2023-07-16T06:20:12;15.50;99.90
33803;DHT22;20110;53.120;5.786;2023-07-16T06:22:37;15.80;99.90
33803;DHT22;20110;53.120;5.786;2023-07-16T06:25:04;16.00;99.90
33803;DHT22;20110;53.120;5.786;2023-07-16T06:27:30;15.80;99.90
33803;DHT22;20110;53.120;5.786;2023-07-16T06:29:56;15.70;99.90
33803;DHT22;20110;53.120;5.786;2023-07-16T06:32:22;15.70;99.90
33803;DHT22;20110;53.120;5.786;2023-07-16T06:34:49;15.80;99.90
33803;DHT22;20110;53.120;5.786;2023-07-16T06:37:15;15.90;99.90
33803;DHT22;20110;53.120;5.786;2023-07-16T06:39:40;16.00;99.90
33803;DHT22;20110;53.120;5.786;2023-07-16T06:42:06;16.20;99.90
33803;DHT22;20110;53.120;5.786;2023-07-16T06:44:32;16.30;92.50
33803;DHT22;20110;53.120;5.786;2023-07-16T06:46:58;16.20;99.90
33803;DHT22;20110;53.120;5.786;2023-07-16T06:49:23;16.10;27.10
33803;DHT22;20110;53.120;5.786;2023-07-16T06:51:49;15.80;99.90
33803;DHT22;20110;53.120;5.786;2023-07-16T06:54:15;15.80;99.90
33803;DHT22;20110;53.120;5.786;2023-07-16T06:56:41;15.70;99.90
33803;DHT22;20110;53.120;5.786;2023-07-16T06:59:07;15.60;99.90
33803;DHT22;20110;53.120;5.786;2023-07-16T07:01:33;15.50;99.90
33803;DHT22;20110;53.120;5.786;2023-07-16T07:03:58;15.20;99.90
33803;DHT22;20110;53.120;5.786;2023-07-16T07:06:24;15.20;99.90
33803;DHT22;20110;53.120;5.786;2023-07-16T07:08:51;15.30;99.90
33803;DHT22;20110;53.120;5.786;2023-07-16T07:11:17;15.30;99.90
33803;DHT22;20110;53.120;5.786;2023-07-16T07:13:44;15.40;99.90
33803;DHT22;20110;53.120;5.786;2023-07-16T07:16:10;15.50;99.90
33803;DHT22;20110;53.120;5.786;2023-07-16T07:18:36;15.50;99.90
33803;DHT22;20110;53.120;5.786;2023-07-16T07:21:03;15.60;99.90
33803;DHT22;20110;53.120;5.786;2023-07-16T07:23:29;15.80;99.90
33803;DHT22;20110;53.120;5.786;2023-07-16T07:25:55;15.80;99.90
33803;DHT22;20110;53.120;5.786;2023-07-16T07:28:21;15.90;99.90
33803;DHT22;20110;53.120;5.786;2023-07-16T07:30:46;16.30;99.90
33803;DHT22;20110;53.120;5.786;2023-07-16T07:33:12;16.50;99.90
33803;DHT22;20110;53.120;5.786;2023-07-16T07:35:39;16.30;99.90
33803;DHT22;20110;53.120;5.786;2023-07-16T07:38:06;16.50;1.00
33803;DHT22;20110;53.120;5.786;2023-07-16T07:40:32;16.50;99.90
33803;DHT22;20110;53.120;5.786;2023-07-16T07:42:58;16.20;99.90
33803;DHT22;20110;53.120;5.786;2023-07-16T07:45:24;16.20;99.90
33803;DHT22;20110;53.120;5.786;2023-07-16T07:47:50;16.40;99.90
33803;DHT22;20110;53.120;5.786;2023-07-16T07:50:16;16.40;99.90
33803;DHT22;20110;53.120;5.786;2023-07-16T07:52:42;16.70;99.90
33803;DHT22;20110;53.120;5.786;2023-07-16T07:55:08;16.70;1.00
33803;DHT22;20110;53.120;5.786;2023-07-16T07:57:34;17.00;99.90
33803;DHT22;20110;53.120;5.786;2023-07-16T08:00:00;16.80;99.90
33803;DHT22;20110;53.120;5.786;2023-07-16T08:02:26;16.70;99.90
33803;DHT22;20110;53.120;5.786;2023-07-16T08:04:53;17.00;99.90
33803;DHT22;20110;53.120;5.786;2023-07-16T08:07:20;16.80;99.90
33803;DHT22;20110;53.120;5.786;2023-07-16T08:09:49;16.90;1.00
33803;DHT22;20110;53.120;5.786;2023-07-16T08:12:15;16.70;99.90
33803;DHT22;20110;53.120;5.786;2023-07-16T08:14:41;16.80;1.00
33803;DHT22;20110;53.120;5.786;2023-07-16T08:17:07;16.80;99.90
33803;DHT22;20110;53.120;5.786;2023-07-16T08:19:33;17.00;18.70
33803;DHT22;20110;53.120;5.786;2023-07-16T08:21:59;17.10;99.90
33803;DHT22;20110;53.120;5.786;2023-07-16T08:24:25;17.20;99.90
33803;DHT22;20110;53.120;5.786;2023-07-16T08:26:51;17.40;90.20
33803;DHT22;20110;53.120;5.786;2023-07-16T08:29:17;17.30;1.00
33803;DHT22;20110;53.120;5.786;2023-07-16T08:31:43;17.30;55.90
33803;DHT22;20110;53.120;5.786;2023-07-16T08:34:09;17.30;1.00
33803;DHT22;20110;53.120;5.786;2023-07-16T08:36:36;17.40;1.00
33803;DHT22;20110;53.120;5.786;2023-07-16T08:39:03;17.40;99.90
33803;DHT22;20110;53.120;5.786;2023-07-16T08:41:29;17.40;1.00
33803;DHT22;20110;53.120;5.786;2023-07-16T08:43:56;17.50;99.90
33803;DHT22;20110;53.120;5.786;2023-07-16T08:46:22;17.50;99.90
33803;DHT22;20110;53.120;5.786;2023-07-16T08:48:49;17.80;99.90
33803;DHT22;20110;53.120;5.786;2023-07-16T08:51:16;17.70;99.90
33803;DHT22;20110;53.120;5.786;2023-07-16T08:53:42;17.60;99.90
33803;DHT22;20110;53.120;5.786;2023-07-16T08:56:09;17.60;99.90
33803;DHT22;20110;53.120;5.786;2023-07-16T08:58:35;18.20;1.00
33803;DHT22;20110;53.120;5.786;2023-07-16T09:01:03;18.30;99.90
33803;DHT22;20110;53.120;5.786;2023-07-16T09:03:30;17.90;99.90
33803;DHT22;20110;53.120;5.786;2023-07-16T09:05:56;17.90;1.00
33803;DHT22;20110;53.120;5.786;2023-07-16T09:08:22;18.00;1.00
33803;DHT22;20110;53.120;5.786;2023-07-16T09:10:54;17.60;99.90
33803;DHT22;20110;53.120;5.786;2023-07-16T09:13:21;17.80;99.90
33803;DHT22;20110;53.120;5.786;2023-07-16T09:15:56;17.90;99.90
33803;DHT22;20110;53.120;5.786;2023-07-16T09:18:24;17.70;99.90
33803;DHT22;20110;53.120;5.786;2023-07-16T09:20:58;17.90;99.90
33803;DHT22;20110;53.120;5.786;2023-07-16T09:23:27;18.10;99.90
33803;DHT22;20110;53.120;5.786;2023-07-16T09:25:54;18.00;99.90
33803;DHT22;20110;53.120;5.786;2023-07-16T09:28:20;17.80;90.00
33803;DHT22;20110;53.120;5.786;2023-07-16T09:30:47;18.00;85.30
33803;DHT22;20110;53.120;5.786;2023-07-16T09:33:18;18.10;26.30
33803;DHT22;20110;53.120;5.786;2023-07-16T09:35:50;18.20;26.20
33803;DHT22;20110;53.120;5.786;2023-07-16T09:38:16;18.00;3.00
33803;DHT22;20110;53.120;5.786;2023-07-16T09:40:43;18.20;61.80
33803;DHT22;20110;53.120;5.786;2023-07-16T09:43:11;18.30;71.10
33803;DHT22;20110;53.120;5.786;2023-07-16T09:45:38;18.60;1.00
33803;DHT22;20110;53.120;5.786;2023-07-16T09:48:04;17.80;1.00
33803;DHT22;20110;53.120;5.786;2023-07-16T09:50:35;18.10;1.00
33803;DHT22;20110;53.120;5.786;2023-07-16T09:53:03;18.00;1.00
33803;DHT22;20110;53.120;5.786;2023-07-16T09:55:35;18.10;1.00
33803;DHT22;20110;53.120;5.786;2023-07-16T09:58:06;18.30;99.90
33803;DHT22;20110;53.120;5.786;2023-07-16T10:00:36;17.90;99.90
33803;DHT22;20110;53.120;5.786;2023-07-16T10:03:07;18.00;99.90
33803;DHT22;20110;53.120;5.786;2023-07-16T10:05:36;17.90;99.90
33803;DHT22;20110;53.120;5.786;2023-07-16T10:08:03;17.40;99.90
33803;DHT22;20110;53.120;5.786;2023-07-16T10:10:40;17.10;99.90
33803;DHT22;20110;53.120;5.786;2023-07-16T10:13:10;17.10;99.90
33803;DHT22;20110;53.120;5.786;2023-07-16T10:15:38;17.30;99.90
33803;DHT22;20110;53.120;5.786;2023-07-16T10:18:05;17.40;99.90
33803;DHT22;20110;53.120;5.786;2023-07-16T10:20:38;17.80;16.40
33803;DHT22;20110;53.120;5.786;2023-07-16T10:23:15;18.00;1.00
33803;DHT22;20110;53.120;5.786;2023-07-16T10:25:58;18.00;1.00
33803;DHT22;20110;53.120;5.786;2023-07-16T10:28:25;17.80;1.00
33803;DHT22;20110;53.120;5.786;2023-07-16T10:30:51;17.70;1.00
33803;DHT22;20110;53.120;5.786;2023-07-16T10:33:17;17.50;1.00
33803;DHT22;20110;53.120;5.786;2023-07-16T10:35:44;17.80;1.00
33803;DHT22;20110;53.120;5.786;2023-07-16T10:38:11;18.30;1.00
33803;DHT22;20110;53.120;5.786;2023-07-16T10:40:44;18.20;99.90
33803;DHT22;20110;53.120;5.786;2023-07-16T10:43:11;18.30;99.90
33803;DHT22;20110;53.120;5.786;2023-07-16T10:45:38;18.70;99.90
33803;DHT22;20110;53.120;5.786;2023-07-16T10:48:04;18.60;99.90
33803;DHT22;20110;53.120;5.786;2023-07-16T10:50:34;18.10;99.90
33803;DHT22;20110;53.120;5.786;2023-07-16T10:53:01;17.80;99.90
33803;DHT22;20110;53.120;5.786;2023-07-16T10:55:29;17.90;99.90
33803;DHT22;20110;53.120;5.786;2023-07-16T10:57:57;18.20;99.90
33803;DHT22;20110;53.120;5.786;2023-07-16T11:00:23;18.20;99.90
33803;DHT22;20110;53.120;5.786;2023-07-16T11:02:52;18.10;99.90
33803;DHT22;20110;53.120;5.786;2023-07-16T11:05:19;18.20;99.90
33803;DHT22;20110;53.120;5.786;2023-07-16T11:07:46;18.40;99.90
33803;DHT22;20110;53.120;5.786;2023-07-16T11:10:15;18.90;99.90
33803;DHT22;20110;53.120;5.786;2023-07-16T11:12:42;18.70;99.90
33803;DHT22;20110;53.120;5.786;2023-07-16T11:15:09;18.80;99.90
33803;DHT22;20110;53.120;5.786;2023-07-16T11:17:39;18.60;99.90
33803;DHT22;20110;53.120;5.786;2023-07-16T11:20:09;18.00;99.90
33803;DHT22;20110;53.120;5.786;2023-07-16T11:22:37;18.10;99.90
33803;DHT22;20110;53.120;5.786;2023-07-16T11:25:10;18.10;99.90
33803;DHT22;20110;53.120;5.786;2023-07-16T11:27:36;18.60;99.90
33803;DHT22;20110;53.120;5.786;2023-07-16T11:30:07;19.30;99.90
33803;DHT22;20110;53.120;5.786;2023-07-16T11:32:41;19.30;99.90
33803;DHT22;20110;53.120;5.786;2023-07-16T11:35:15;19.10;99.90
33803;DHT22;20110;53.120;5.786;2023-07-16T11:37:43;18.80;91.20
33803;DHT22;20110;53.120;5.786;2023-07-16T11:40:14;18.60;99.90
33803;DHT22;20110;53.120;5.786;2023-07-16T11:42:42;18.30;99.90
33803;DHT22;20110;53.120;5.786;2023-07-16T11:45:18;18.00;99.90
33803;DHT22;20110;53.120;5.786;2023-07-16T11:47:46;18.20;99.90
33803;DHT22;20110;53.120;5.786;2023-07-16T11:50:13;18.20;99.90
33803;DHT22;20110;53.120;5.786;2023-07-16T11:52:40;18.90;99.90
33803;DHT22;20110;53.120;5.786;2023-07-16T11:55:07;19.30;99.90
33803;DHT22;20110;53.120;5.786;2023-07-16T11:57:34;19.60;99.90
33803;DHT22;20110;53.120;5.786;2023-07-16T12:00:02;19.00;99.90
33803;DHT22;20110;53.120;5.786;2023-07-16T12:02:29;18.50;99.90
33803;DHT22;20110;53.120;5.786;2023-07-16T12:04:55;18.70;99.90
33803;DHT22;20110;53.120;5.786;2023-07-16T12:07:35;18.60;99.90
33803;DHT22;20110;53.120;5.786;2023-07-16T12:10:06;18.40;99.90
33803;DHT22;20110;53.120;5.786;2023-07-16T12:12:33;18.20;99.90
33803;DHT22;20110;53.120;5.786;2023-07-16T12:15:04;18.20;99.90
33803;DHT22;20110;53.120;5.786;2023-07-16T12:17:30;17.90;99.90
33803;DHT22;20110;53.120;5.786;2023-07-16T12:19:56;17.20;1.00
33803;DHT22;20110;53.120;5.786;2023-07-16T12:22:23;16.80;99.90
33803;DHT22;20110;53.120;5.786;2023-07-16T12:24:49;16.80;99.90
33803;DHT22;20110;53.120;5.786;2023-07-16T12:27:15;16.80;1.00
33803;DHT22;20110;53.120;5.786;2023-07-16T12:29:42;16.90;1.00
33803;DHT22;20110;53.120;5.786;2023-07-16T12:32:08;17.10;1.00
33803;DHT22;20110;53.120;5.786;2023-07-16T12:34:34;17.40;99.90
33803;DHT22;20110;53.120;5.786;2023-07-16T12:37:00;18.10;99.90
33803;DHT22;20110;53.120;5.786;2023-07-16T12:39:26;17.90;99.90
33803;DHT22;20110;53.120;5.786;2023-07-16T12:41:51;17.80;99.90
33803;DHT22;20110;53.120;5.786;2023-07-16T12:44:17;17.90;99.90
33803;DHT22;20110;53.120;5.786;2023-07-16T12:46:43;17.80;1.00
33803;DHT22;20110;53.120;5.786;2023-07-16T12:49:09;18.00;1.00
33803;DHT22;20110;53.120;5.786;2023-07-16T12:51:35;18.30;99.90
33803;DHT22;20110;53.120;5.786;2023-07-16T12:54:00;18.30;99.90
33803;DHT22;20110;53.120;5.786;2023-07-16T12:56:27;17.90;99.90
33803;DHT22;20110;53.120;5.786;2023-07-16T12:58:52;17.60;99.90
33803;DHT22;20110;53.120;5.786;2023-07-16T13:01:18;17.80;1.00
33803;DHT22;20110;53.120;5.786;2023-07-16T13:03:44;17.60;1.00
33803;DHT22;20110;53.120;5.786;2023-07-16T13:06:10;17.60;1.00
33803;DHT22;20110;53.120;5.786;2023-07-16T13:08:36;17.50;1.90
33803;DHT22;20110;53.120;5.786;2023-07-16T13:11:02;17.20;10.90
33803;DHT22;20110;53.120;5.786;2023-07-16T13:13:28;17.40;55.70
33803;DHT22;20110;53.120;5.786;2023-07-16T13:15:54;17.50;99.90
33803;DHT22;20110;53.120;5.786;2023-07-16T13:18:20;17.50;99.90
33803;DHT22;20110;53.120;5.786;2023-07-16T13:20:46;17.90;99.90
33803;DHT22;20110;53.120;5.786;2023-07-16T13:23:12;18.00;99.90
33803;DHT22;20110;53.120;5.786;2023-07-16T13:25:38;17.80;56.10
33803;DHT22;20110;53.120;5.786;2023-07-16T13:28:07;18.30;1.00
33803;DHT22;20110;53.120;5.786;2023-07-16T13:30:34;18.50;1.00
33803;DHT22;20110;53.120;5.786;2023-07-16T13:33:00;18.10;99.90
33803;DHT22;20110;53.120;5.786;2023-07-16T13:35:26;18.10;1.00
33803;DHT22;20110;53.120;5.786;2023-07-16T13:37:52;17.70;1.00
33803;DHT22;20110;53.120;5.786;2023-07-16T13:40:18;17.80;1.00
33803;DHT22;20110;53.120;5.786;2023-07-16T13:42:47;18.50;1.00
33803;DHT22;20110;53.120;5.786;2023-07-16T13:45:13;18.50;99.90
33803;DHT22;20110;53.120;5.786;2023-07-16T13:47:39;18.50;99.90
33803;DHT22;20110;53.120;5.786;2023-07-16T13:50:06;18.60;99.90
33803;DHT22;20110;53.120;5.786;2023-07-16T13:52:32;18.90;99.90
33803;DHT22;20110;53.120;5.786;2023-07-16T13:54:57;19.00;99.90
33803;DHT22;20110;53.120;5.786;2023-07-16T13:57:23;18.60;99.90
33803;DHT22;20110;53.120;5.786;2023-07-16T13:59:49;18.70;99.90
33803;DHT22;20110;53.120;5.786;2023-07-16T14:02:15;18.90;99.90
33803;DHT22;20110;53.120;5.786;2023-07-16T14:04:41;18.40;99.90
33803;DHT22;20110;53.120;5.786;2023-07-16T14:07:06;18.60;99.90
33803;DHT22;20110;53.120;5.786;2023-07-16T14:09:32;18.70;99.90
33803;DHT22;20110;53.120;5.786;2023-07-16T14:11:58;18.60;99.90
33803;DHT22;20110;53.120;5.786;2023-07-16T14:14:24;18.50;99.90
33803;DHT22;20110;53.120;5.786;2023-07-16T14:16:50;18.50;98.70
33803;DHT22;20110;53.120;5.786;2023-07-16T14:19:16;18.40;99.90
33803;DHT22;20110;53.120;5.786;2023-07-16T14:21:42;18.70;99.90
33803;DHT22;20110;53.120;5.786;2023-07-16T14:24:08;18.80;99.90
33803;DHT22;20110;53.120;5.786;2023-07-16T14:26:34;19.40;99.90
33803;DHT22;20110;53.120;5.786;2023-07-16T14:29:00;18.90;66.20
33803;DHT22;20110;53.120;5.786;2023-07-16T14:31:26;18.40;67.40
33803;DHT22;20110;53.120;5.786;2023-07-16T14:33:52;18.60;99.90
33803;DHT22;20110;53.120;5.786;2023-07-16T14:36:19;18.50;99.90
33803;DHT22;20110;53.120;5.786;2023-07-16T14:38:47;18.60;99.90
33803;DHT22;20110;53.120;5.786;2023-07-16T14:41:13;18.60;99.90
33803;DHT22;20110;53.120;5.786;2023-07-16T14:43:39;18.70;99.90
33803;DHT22;20110;53.120;5.786;2023-07-16T14:46:06;19.30;99.90
33803;DHT22;20110;53.120;5.786;2023-07-16T14:48:32;19.40;99.90
33803;DHT22;20110;53.120;5.786;2023-07-16T14:50:57;19.00;71.50
33803;DHT22;20110;53.120;5.786;2023-07-16T14:53:23;18.80;38.60
33803;DHT22;20110;53.120;5.786;2023-07-16T14:55:51;18.70;25.90
33803;DHT22;20110;53.120;5.786;2023-07-16T14:58:19;18.60;66.20
33803;DHT22;20110;53.120;5.786;2023-07-16T15:00:48;19.00;46.60
33803;DHT22;20110;53.120;5.786;2023-07-16T15:03:14;19.20;22.50
33803;DHT22;20110;53.120;5.786;2023-07-16T15:05:40;19.40;1.00
33803;DHT22;20110;53.120;5.786;2023-07-16T15:08:06;19.20;1.00
33803;DHT22;20110;53.120;5.786;2023-07-16T15:10:32;19.20;1.00
33803;DHT22;20110;53.120;5.786;2023-07-16T15:12:58;19.20;1.00
33803;DHT22;20110;53.120;5.786;2023-07-16T15:15:24;19.30;1.00
33803;DHT22;20110;53.120;5.786;2023-07-16T15:17:50;19.10;1.00
33803;DHT22;20110;53.120;5.786;2023-07-16T15:20:17;19.20;1.00
33803;DHT22;20110;53.120;5.786;2023-07-16T15:22:43;18.90;1.00
33803;DHT22;20110;53.120;5.786;2023-07-16T15:25:09;18.90;1.00
33803;DHT22;20110;53.120;5.786;2023-07-16T15:27:37;19.10;1.00
33803;DHT22;20110;53.120;5.786;2023-07-16T15:30:03;19.00;1.00
33803;DHT22;20110;53.120;5.786;2023-07-16T15:32:29;18.90;1.00
33803;DHT22;20110;53.120;5.786;2023-07-16T15:34:56;18.80;1.00
33803;DHT22;20110;53.120;5.786;2023-07-16T15:37:22;19.00;1.00
33803;DHT22;20110;53.120;5.786;2023-07-16T15:39:48;19.00;1.00